createdAt,value
2017-07-22T00:02:09.560Z,12.73
2017-07-22T00:04:36.846Z,8.18
2017-07-22T00:07:03.600Z,8.40
2017-07-22T00:09:33.568Z,6.55
2017-07-22T00:14:33.630Z,10.27
2017-07-22T00:17:01.092Z,6.97
2017-07-22T00:19:27.892Z,7.08
2017-07-22T00:21:55.313Z,7.18
2017-07-22T00:24:24.550Z,7.30
2017-07-22T00:26:52.616Z,6.67
2017-07-22T00:29:20.428Z,8.12
2017-07-22T00:31:49.204Z,6.77
2017-07-22T00:34:19.945Z,7.88
2017-07-22T00:36:47.759Z,7.70
2017-07-22T00:39:16.315Z,8.63
2017-07-22T00:41:43.174Z,6.75
2017-07-22T00:44:13.135Z,7.48
2017-07-22T00:46:43.165Z,7.83
2017-07-22T00:49:09.990Z,7.83
2017-07-22T00:51:36.752Z,8.77
2017-07-22T00:54:04.509Z,7.67
2017-07-22T00:56:33.438Z,7.35
2017-07-22T00:59:00.697Z,7.88
2017-07-22T01:01:28.739Z,7.87
2017-07-22T01:03:55.516Z,7.97
2017-07-22T01:06:24.637Z,8.58
2017-07-22T01:08:52.027Z,7.88
2017-07-22T01:11:19.508Z,7.97
2017-07-22T01:13:49.889Z,7.48
2017-07-22T01:16:17.728Z,7.65
2017-07-22T01:18:47.333Z,7.68
2017-07-22T01:21:16.572Z,7.85
2017-07-22T01:23:46.363Z,8.77
2017-07-22T01:26:13.726Z,7.43
2017-07-22T01:28:42.596Z,6.90
2017-07-22T01:31:12.643Z,8.10
2017-07-22T01:33:47.450Z,7.72
2017-07-22T01:36:19.062Z,9.33
2017-07-22T01:38:47.688Z,7.58
2017-07-22T01:41:15.582Z,7.28
2017-07-22T01:43:42.386Z,7.65
2017-07-22T01:46:10.375Z,9.35
2017-07-22T01:48:41.280Z,7.87
2017-07-22T01:51:09.362Z,9.25
2017-07-22T01:53:36.981Z,9.82
2017-07-22T01:56:07.660Z,9.00
2017-07-22T01:58:35.333Z,10.28
2017-07-22T02:01:05.292Z,7.83
2017-07-22T02:03:34.989Z,7.78
2017-07-22T02:06:01.838Z,9.17
2017-07-22T02:08:29.260Z,9.43
2017-07-22T02:10:56.811Z,8.97
2017-07-22T02:13:25.485Z,8.65
2017-07-22T02:15:54.993Z,9.93
2017-07-22T02:21:04.090Z,8.82
2017-07-22T02:23:32.106Z,9.22
2017-07-22T02:26:00.016Z,7.68
2017-07-22T02:28:28.817Z,7.42
2017-07-22T02:30:56.835Z,13.37
2017-07-22T02:33:26.903Z,11.23
2017-07-22T02:35:54.999Z,9.03
2017-07-22T02:41:00.138Z,8.43
2017-07-22T02:43:28.295Z,9.90
2017-07-22T02:45:56.573Z,8.48
2017-07-22T02:48:26.563Z,7.78
2017-07-22T02:50:56.672Z,9.77
2017-07-22T02:53:24.219Z,8.78
2017-07-22T02:55:55.033Z,8.47
2017-07-22T02:58:23.752Z,8.23
2017-07-22T03:00:52.963Z,7.02
2017-07-22T03:03:21.064Z,6.58
2017-07-22T03:05:48.431Z,5.42
2017-07-22T03:08:15.575Z,7.90
2017-07-22T03:10:43.266Z,5.85
2017-07-22T03:13:10.264Z,5.42
2017-07-22T03:15:38.273Z,8.38
2017-07-22T03:18:07.988Z,6.12
2017-07-22T03:20:36.932Z,6.80
2017-07-22T03:23:04.465Z,7.05
2017-07-22T03:25:33.053Z,7.80
2017-07-22T03:28:00.723Z,7.42
2017-07-22T03:30:28.211Z,6.35
2017-07-22T03:35:31.502Z,8.18
2017-07-22T03:40:32.549Z,6.32
2017-07-22T03:43:00.238Z,7.17
2017-07-22T03:45:30.385Z,8.52
2017-07-22T03:47:59.273Z,8.13
2017-07-22T03:50:27.453Z,7.95
2017-07-22T03:52:56.455Z,7.58
2017-07-22T03:55:24.099Z,8.03
2017-07-22T03:57:51.262Z,7.62
2017-07-22T04:00:19.237Z,9.38
2017-07-22T04:02:46.280Z,7.83
2017-07-22T04:05:17.130Z,7.42
2017-07-22T04:07:44.720Z,11.33
2017-07-22T04:10:12.974Z,15.28
2017-07-22T04:12:41.352Z,7.38
2017-07-22T04:15:08.184Z,7.42
2017-07-22T04:17:35.359Z,7.82
2017-07-22T04:20:05.758Z,9.82
2017-07-22T04:22:34.533Z,8.28
2017-07-22T04:27:37.128Z,9.58
2017-07-22T04:30:06.128Z,9.12
2017-07-22T04:32:34.938Z,7.20
2017-07-22T04:35:02.879Z,10.08
2017-07-22T04:37:35.156Z,8.65
2017-07-22T04:40:03.042Z,9.03
2017-07-22T04:42:29.790Z,8.77
2017-07-22T04:45:02.567Z,8.30
2017-07-22T04:47:33.521Z,9.47
2017-07-22T04:50:01.682Z,8.87
2017-07-22T04:52:32.100Z,9.10
2017-07-22T04:55:00.680Z,9.87
2017-07-22T04:57:28.190Z,8.92
2017-07-22T04:59:55.048Z,8.03
2017-07-22T05:02:23.998Z,10.00
2017-07-22T05:04:52.057Z,9.02
2017-07-22T05:07:20.267Z,16.53
2017-07-22T05:09:48.213Z,9.68
2017-07-22T05:12:17.554Z,9.68
2017-07-22T05:14:46.331Z,9.28
2017-07-22T05:17:14.963Z,10.13
2017-07-22T05:19:42.076Z,11.55
2017-07-22T05:22:09.513Z,10.32
2017-07-22T05:24:38.992Z,11.13
2017-07-22T05:27:06.860Z,10.55
2017-07-22T05:29:34.019Z,9.80
2017-07-22T05:32:01.726Z,11.27
2017-07-22T05:34:28.732Z,9.43
2017-07-22T05:36:56.256Z,11.03
2017-07-22T05:39:24.094Z,10.55
2017-07-22T05:41:52.469Z,10.78
2017-07-22T05:44:20.884Z,11.53
2017-07-22T05:46:53.527Z,10.70
2017-07-22T05:49:21.121Z,11.52
2017-07-22T05:51:48.792Z,11.48
2017-07-22T05:54:16.373Z,10.90
2017-07-22T05:56:44.173Z,12.17
2017-07-22T05:59:11.986Z,11.75
2017-07-22T06:01:39.723Z,11.83
2017-07-22T06:04:06.533Z,11.82
2017-07-22T06:06:34.033Z,11.58
2017-07-22T06:09:01.658Z,12.33
2017-07-22T06:11:28.748Z,10.62
2017-07-22T06:13:58.647Z,11.83
2017-07-22T06:16:33.215Z,11.45
2017-07-22T06:18:59.966Z,12.97
2017-07-22T06:21:26.737Z,11.93
2017-07-22T06:23:53.538Z,11.02
2017-07-22T06:26:20.290Z,12.55
2017-07-22T06:28:47.063Z,11.30
2017-07-22T06:31:13.878Z,11.90
2017-07-22T06:33:40.645Z,11.42
2017-07-22T06:36:07.374Z,9.94
2017-07-22T06:38:34.160Z,11.00
2017-07-22T06:41:04.500Z,9.48
2017-07-22T06:43:31.270Z,9.20
2017-07-22T06:45:58.036Z,7.64
2017-07-22T06:48:24.780Z,8.06
2017-07-22T06:50:51.511Z,7.22
2017-07-22T06:53:18.291Z,6.94
2017-07-22T06:55:45.031Z,8.10
2017-07-22T06:58:11.775Z,7.28
2017-07-22T07:00:38.543Z,7.46
2017-07-22T07:03:05.943Z,7.44
2017-07-22T07:05:32.941Z,7.25
2017-07-22T07:07:59.720Z,8.47
2017-07-22T07:10:26.455Z,7.70
2017-07-22T07:12:53.205Z,7.38
2017-07-22T07:15:20.266Z,8.46
2017-07-22T07:17:47.008Z,7.40
2017-07-22T07:20:14.479Z,7.50
2017-07-22T07:22:41.247Z,8.16
2017-07-22T07:25:07.992Z,6.88
2017-07-22T07:27:34.726Z,8.22
2017-07-22T07:30:01.478Z,7.34
2017-07-22T07:32:28.224Z,7.50
2017-07-22T07:34:54.982Z,6.24
2017-07-22T07:37:21.744Z,6.68
2017-07-22T07:39:50.563Z,7.42
2017-07-22T07:42:18.087Z,6.26
2017-07-22T07:44:48.656Z,6.96
2017-07-22T07:47:15.391Z,5.50
2017-07-22T07:49:42.677Z,5.30
2017-07-22T07:52:13.588Z,6.54
2017-07-22T07:54:42.383Z,5.74
2017-07-22T07:57:10.068Z,5.90
2017-07-22T07:59:38.622Z,6.14
2017-07-22T08:02:07.066Z,5.70
2017-07-22T08:04:34.725Z,5.50
2017-07-22T08:07:02.598Z,6.36
2017-07-22T08:09:29.884Z,7.24
2017-07-22T08:11:57.906Z,6.30
2017-07-22T08:14:25.037Z,6.16
2017-07-22T08:16:52.038Z,6.08
2017-07-22T08:19:20.325Z,6.56
2017-07-22T08:21:47.337Z,6.40
2017-07-22T08:24:14.330Z,6.70
2017-07-22T08:26:41.089Z,6.46
2017-07-22T08:29:08.146Z,8.74
2017-07-22T08:31:35.287Z,6.42
2017-07-22T08:34:02.042Z,5.70
2017-07-22T08:36:28.831Z,6.56
2017-07-22T08:38:55.580Z,6.52
2017-07-22T08:41:22.322Z,6.44
2017-07-22T08:43:49.477Z,6.38
2017-07-22T08:46:16.475Z,6.82
2017-07-22T08:48:44.120Z,6.62
2017-07-22T08:51:10.896Z,5.70
2017-07-22T08:53:38.000Z,6.48
2017-07-22T08:56:05.090Z,4.76
2017-07-22T08:58:32.215Z,5.38
2017-07-22T09:00:59.335Z,5.22
2017-07-22T09:03:26.477Z,5.42
2017-07-22T09:05:53.333Z,6.12
2017-07-22T09:08:20.912Z,5.48
2017-07-22T09:10:47.994Z,5.40
2017-07-22T09:13:14.990Z,5.16
2017-07-22T09:15:42.113Z,4.78
2017-07-22T09:18:09.837Z,5.76
2017-07-22T09:20:37.335Z,4.06
2017-07-22T09:23:04.107Z,4.42
2017-07-22T09:25:30.851Z,4.30
2017-07-22T09:27:57.954Z,4.42
2017-07-22T09:30:34.723Z,4.66
2017-07-22T09:33:03.070Z,4.76
2017-07-22T09:35:30.435Z,4.04
2017-07-22T09:37:59.906Z,4.10
2017-07-22T09:40:27.452Z,3.78
2017-07-22T09:42:58.540Z,3.96
2017-07-22T09:45:26.415Z,3.62
2017-07-22T09:47:53.980Z,3.60
2017-07-22T09:50:21.232Z,4.14
2017-07-22T09:52:50.425Z,4.00
2017-07-22T09:55:18.043Z,3.88
2017-07-22T09:57:49.463Z,4.10
2017-07-22T10:00:16.208Z,3.40
2017-07-22T10:02:46.385Z,4.16
2017-07-22T10:05:13.160Z,3.40
2017-07-22T10:07:40.232Z,3.34
2017-07-22T10:10:07.590Z,4.86
2017-07-22T10:12:38.107Z,3.74
2017-07-22T10:15:04.868Z,3.68
2017-07-22T10:17:32.552Z,3.28
2017-07-22T10:20:00.527Z,4.56
2017-07-22T10:22:27.682Z,3.98
2017-07-22T10:24:57.338Z,3.54
2017-07-22T10:27:28.098Z,5.86
2017-07-22T10:29:56.748Z,3.80
2017-07-22T10:32:24.166Z,4.32
2017-07-22T10:34:51.290Z,3.74
2017-07-22T10:37:19.204Z,4.08
2017-07-22T10:39:49.461Z,3.98
2017-07-22T10:42:16.452Z,3.10
2017-07-22T10:44:47.251Z,4.42
2017-07-22T10:47:14.035Z,3.40
2017-07-22T10:49:42.716Z,4.14
2017-07-22T10:52:09.507Z,4.18
2017-07-22T10:54:37.204Z,4.52
2017-07-22T10:57:04.273Z,3.74
2017-07-22T10:59:32.898Z,4.22
2017-07-22T11:02:02.489Z,5.38
2017-07-22T11:04:29.925Z,3.28
2017-07-22T11:06:57.915Z,3.92
2017-07-22T11:09:29.726Z,3.40
2017-07-22T11:11:56.545Z,2.96
2017-07-22T11:14:23.286Z,3.06
2017-07-22T11:16:50.031Z,4.22
2017-07-22T11:19:17.180Z,3.78
2017-07-22T11:21:43.926Z,3.52
2017-07-22T11:24:10.701Z,5.44
2017-07-22T11:26:37.434Z,3.66
2017-07-22T11:29:04.198Z,3.72
2017-07-22T11:31:30.947Z,4.32
2017-07-22T11:33:57.691Z,3.22
2017-07-22T11:36:24.852Z,3.86
2017-07-22T11:38:51.603Z,4.16
2017-07-22T11:41:18.353Z,5.94
2017-07-22T11:43:45.360Z,3.82
2017-07-22T11:46:12.101Z,3.28
2017-07-22T11:48:38.849Z,5.54
2017-07-22T11:51:05.624Z,3.22
2017-07-22T11:53:32.371Z,3.24
2017-07-22T11:55:59.116Z,3.12
2017-07-22T11:58:25.885Z,3.78
2017-07-22T12:00:52.992Z,4.04
2017-07-22T12:03:20.080Z,3.34
2017-07-22T12:05:47.253Z,3.48
2017-07-22T12:08:13.992Z,3.60
2017-07-22T12:10:40.739Z,3.80
2017-07-22T12:13:07.513Z,3.44
2017-07-22T12:15:34.484Z,3.90
2017-07-22T12:18:01.630Z,3.36
2017-07-22T12:20:28.409Z,4.80
2017-07-22T12:22:55.161Z,3.26
2017-07-22T12:25:21.895Z,4.82
2017-07-22T12:27:48.996Z,2.70
2017-07-22T12:30:15.740Z,4.08
2017-07-22T12:32:42.902Z,3.60
2017-07-22T12:35:09.681Z,5.46
2017-07-22T12:37:36.424Z,4.18
2017-07-22T12:40:03.465Z,2.94
2017-07-22T12:42:30.230Z,3.24
2017-07-22T12:44:56.994Z,2.98
2017-07-22T12:47:23.732Z,3.28
2017-07-22T12:49:50.822Z,5.14
2017-07-22T12:52:17.568Z,5.30
2017-07-22T12:54:44.745Z,7.62
2017-07-22T12:57:11.517Z,3.40
2017-07-22T12:59:38.272Z,5.02
2017-07-22T13:02:05.025Z,3.68
2017-07-22T13:04:31.809Z,3.38
2017-07-22T13:06:58.555Z,11.06
2017-07-22T13:09:25.286Z,4.46
2017-07-22T13:11:52.310Z,3.84
2017-07-22T13:14:19.077Z,3.94
2017-07-22T13:16:45.830Z,3.82
2017-07-22T13:19:12.595Z,4.54
2017-07-22T13:21:39.683Z,4.24
2017-07-22T13:24:06.676Z,3.50
2017-07-22T13:26:33.440Z,4.38
2017-07-22T13:29:00.430Z,3.82
2017-07-22T13:31:27.180Z,4.02
2017-07-22T13:33:54.184Z,4.44
2017-07-22T13:36:21.208Z,4.18
2017-07-22T13:38:48.180Z,6.14
2017-07-22T13:41:15.345Z,3.28
2017-07-22T13:43:42.114Z,3.78
2017-07-22T13:46:09.278Z,3.18
2017-07-22T13:48:36.052Z,3.98
2017-07-22T13:51:02.801Z,3.44
2017-07-22T13:53:29.538Z,4.38
2017-07-22T13:55:56.612Z,5.24
2017-07-22T13:58:23.583Z,3.14
2017-07-22T14:00:50.328Z,5.36
2017-07-22T14:03:17.989Z,3.22
2017-07-22T14:05:45.632Z,3.28
2017-07-22T14:08:12.380Z,2.92
2017-07-22T14:10:40.935Z,3.78
2017-07-22T14:13:07.689Z,3.14
2017-07-22T14:15:34.435Z,3.48
2017-07-22T14:18:01.212Z,3.62
2017-07-22T14:20:28.214Z,5.16
2017-07-22T14:22:54.958Z,3.50
2017-07-22T14:25:22.120Z,3.18
2017-07-22T14:27:48.875Z,4.66
2017-07-22T14:30:15.615Z,3.82
2017-07-22T14:32:42.384Z,3.28
2017-07-22T14:35:09.518Z,4.20
2017-07-22T14:37:36.584Z,4.36
2017-07-22T14:40:03.364Z,3.52
2017-07-22T14:42:30.104Z,4.42
2017-07-22T14:44:56.858Z,3.52
2017-07-22T14:47:23.628Z,4.50
2017-07-22T14:49:50.372Z,3.58
2017-07-22T14:52:17.889Z,3.70
2017-07-22T14:54:44.660Z,3.58
2017-07-22T14:57:11.691Z,3.24
2017-07-22T14:59:38.687Z,3.42
2017-07-22T15:02:05.692Z,3.04
2017-07-22T15:04:32.461Z,3.22
2017-07-22T15:06:59.543Z,3.68
2017-07-22T15:09:26.317Z,3.80
2017-07-22T15:11:53.066Z,3.82
2017-07-22T15:14:19.795Z,3.04
2017-07-22T15:16:46.561Z,4.76
2017-07-22T15:19:13.312Z,3.06
2017-07-22T15:21:40.068Z,3.40
2017-07-22T15:24:06.839Z,2.98
2017-07-22T15:26:33.589Z,2.64
2017-07-22T15:29:00.335Z,2.84
2017-07-22T15:31:27.104Z,2.90
2017-07-22T15:33:53.852Z,3.00
2017-07-22T15:36:20.628Z,3.32
2017-07-22T15:38:47.381Z,3.30
2017-07-22T15:41:14.124Z,6.24
2017-07-22T15:43:40.864Z,2.70
2017-07-22T15:46:07.637Z,2.78
2017-07-22T15:48:34.385Z,3.54
2017-07-22T15:51:01.483Z,2.96
2017-07-22T15:53:28.263Z,3.10
2017-07-22T15:55:55.009Z,2.70
2017-07-22T15:58:21.774Z,2.40
2017-07-22T16:00:48.558Z,3.00
2017-07-22T16:03:15.290Z,3.94
2017-07-22T16:05:42.054Z,3.86
2017-07-22T16:08:09.129Z,3.12
2017-07-22T16:10:35.878Z,2.70
2017-07-22T16:13:02.633Z,3.04
2017-07-22T16:15:29.413Z,2.60
2017-07-22T16:17:56.153Z,2.96
2017-07-22T16:20:22.887Z,2.90
2017-07-22T16:22:49.874Z,2.98
2017-07-22T16:25:16.612Z,3.66
2017-07-22T16:27:43.351Z,3.04
2017-07-22T16:30:10.378Z,3.68
2017-07-22T16:32:37.351Z,3.66
2017-07-22T16:35:05.109Z,3.52
2017-07-22T16:37:32.175Z,2.68
2017-07-22T16:39:59.341Z,4.00
2017-07-22T16:42:26.136Z,3.28
2017-07-22T16:44:53.645Z,6.26
2017-07-22T16:47:21.113Z,2.90
2017-07-22T16:49:47.856Z,2.82
2017-07-22T16:52:15.029Z,2.94
2017-07-22T16:54:41.787Z,2.16
2017-07-22T16:57:08.816Z,2.20
2017-07-22T16:59:35.613Z,3.28
2017-07-22T17:02:02.361Z,3.30
2017-07-22T17:04:29.526Z,2.40
2017-07-22T17:06:56.536Z,2.56
2017-07-22T17:09:23.284Z,2.00
2017-07-22T17:11:50.274Z,2.64
2017-07-22T17:14:17.456Z,3.90
2017-07-22T17:16:44.205Z,2.40
2017-07-22T17:19:11.268Z,2.62
2017-07-22T17:21:38.037Z,3.54
2017-07-22T17:24:04.786Z,2.34
2017-07-22T17:26:31.529Z,2.20
2017-07-22T17:28:58.709Z,2.16
2017-07-22T17:31:25.788Z,2.50
2017-07-22T17:33:52.550Z,3.22
2017-07-22T17:36:19.317Z,2.30
2017-07-22T17:38:46.063Z,2.08
2017-07-22T17:41:12.799Z,2.18
2017-07-22T17:43:39.808Z,2.08
2017-07-22T17:46:06.556Z,2.12
2017-07-22T17:48:33.541Z,1.90
2017-07-22T17:51:00.310Z,2.34
2017-07-22T17:53:27.400Z,2.06
2017-07-22T17:55:54.141Z,2.04
2017-07-22T17:58:20.929Z,2.38
2017-07-22T18:00:48.102Z,2.82
2017-07-22T18:03:15.229Z,3.16
2017-07-22T18:05:42.013Z,2.94
2017-07-22T18:08:09.609Z,2.32
2017-07-22T18:10:36.579Z,2.96
2017-07-22T18:13:04.114Z,3.22
2017-07-22T18:15:31.692Z,3.02
2017-07-22T18:18:00.763Z,2.66
2017-07-22T18:21:15.107Z,3.02
2017-07-22T18:23:41.939Z,3.08
2017-07-22T18:26:10.189Z,2.94
2017-07-22T18:28:37.321Z,2.72
2017-07-22T18:31:04.362Z,2.82
2017-07-22T18:33:31.466Z,2.68
2017-07-22T18:35:58.515Z,3.00
2017-07-22T18:38:25.501Z,3.26
2017-07-22T18:40:52.570Z,3.34
2017-07-22T18:43:19.704Z,5.22
2017-07-22T18:45:46.776Z,2.82
2017-07-22T18:48:13.515Z,3.44
2017-07-22T18:50:40.314Z,3.32
2017-07-22T18:53:07.414Z,3.22
2017-07-22T18:55:34.409Z,3.70
2017-07-22T18:58:01.421Z,3.94
2017-07-22T19:00:28.515Z,9.50
2017-07-22T19:02:55.278Z,6.02
2017-07-22T19:05:22.959Z,6.66
2017-07-22T19:07:49.750Z,5.68
2017-07-22T19:10:16.752Z,3.96
2017-07-22T19:12:43.530Z,5.52
2017-07-22T19:15:10.284Z,3.96
2017-07-22T19:17:37.052Z,4.08
2017-07-22T19:20:03.846Z,5.64
2017-07-22T19:22:30.584Z,3.24
2017-07-22T19:24:57.585Z,4.52
2017-07-22T19:27:24.355Z,4.04
2017-07-22T19:29:51.116Z,4.06
2017-07-22T19:32:17.869Z,5.22
2017-07-22T19:34:44.903Z,4.62
2017-07-22T19:37:11.909Z,4.70
2017-07-22T19:39:38.648Z,3.74
2017-07-22T19:42:05.428Z,4.44
2017-07-22T19:44:32.540Z,4.24
2017-07-22T19:46:59.554Z,3.80
2017-07-22T19:49:26.727Z,4.52
2017-07-22T19:51:53.579Z,4.10
2017-07-22T19:54:20.661Z,5.36
2017-07-22T19:56:47.670Z,4.58
2017-07-22T19:59:14.740Z,6.68
2017-07-22T20:01:41.724Z,5.86
2017-07-22T20:04:08.613Z,4.30
2017-07-22T20:06:35.360Z,3.96
2017-07-22T20:09:02.117Z,4.06
2017-07-22T20:11:29.257Z,5.18
2017-07-22T20:13:56.402Z,5.62
2017-07-22T20:16:23.916Z,7.14
2017-07-22T20:18:50.709Z,4.28
2017-07-22T20:21:17.854Z,5.22
2017-07-22T20:23:44.607Z,4.18
2017-07-22T20:26:11.900Z,4.48
2017-07-22T20:28:39.062Z,4.42
2017-07-22T20:31:06.062Z,4.88
2017-07-22T20:33:32.835Z,4.78
2017-07-22T20:35:59.820Z,6.60
2017-07-22T20:38:26.908Z,7.16
2017-07-22T20:40:54.068Z,5.18
2017-07-22T20:43:21.056Z,5.06
2017-07-22T20:45:48.350Z,5.96
2017-07-22T20:48:15.384Z,5.12
2017-07-22T20:50:42.174Z,4.93
2017-07-22T20:53:09.180Z,4.63
2017-07-22T20:55:36.184Z,4.94
2017-07-22T20:58:03.216Z,4.75
2017-07-22T21:00:30.228Z,4.68
2017-07-22T21:02:57.339Z,5.40
2017-07-22T21:05:24.335Z,4.85
2017-07-22T21:07:51.086Z,4.34
2017-07-22T21:10:18.227Z,5.62
2017-07-22T21:12:45.347Z,4.12
2017-07-22T21:15:12.340Z,5.40
2017-07-22T21:17:39.497Z,5.58
2017-07-22T21:20:06.269Z,4.90
2017-07-22T21:22:33.350Z,5.52
2017-07-22T21:25:00.382Z,4.72
2017-07-22T21:27:27.392Z,4.53
2017-07-22T21:29:54.534Z,5.30
2017-07-22T21:32:21.691Z,5.40
2017-07-22T21:34:48.901Z,5.95
2017-07-22T21:37:15.652Z,7.12
2017-07-22T21:39:42.766Z,7.32
2017-07-22T21:42:09.801Z,7.48
2017-07-22T21:44:36.931Z,6.95
2017-07-22T21:47:03.961Z,7.17
2017-07-22T21:49:31.064Z,7.20
2017-07-22T21:51:58.163Z,11.87
2017-07-22T21:54:25.254Z,8.88
2017-07-22T21:56:52.246Z,7.00
2017-07-22T21:59:19.943Z,8.32
2017-07-22T22:01:46.968Z,7.02
2017-07-22T22:04:14.053Z,6.98
2017-07-22T22:06:43.624Z,6.50
2017-07-22T22:09:10.715Z,7.02
2017-07-22T22:11:37.769Z,6.10
2017-07-22T22:14:04.755Z,6.92
2017-07-22T22:16:31.553Z,7.08
2017-07-22T22:18:58.554Z,5.68
2017-07-22T22:21:25.728Z,5.48
2017-07-22T22:23:52.917Z,5.38
2017-07-22T22:26:19.939Z,4.96
2017-07-22T22:28:47.041Z,5.38
2017-07-22T22:31:14.060Z,5.33
2017-07-22T22:33:41.202Z,5.72
2017-07-22T22:36:08.345Z,5.58
2017-07-22T22:38:35.367Z,6.73
2017-07-22T22:41:02.507Z,7.07
2017-07-22T22:43:29.991Z,6.43
2017-07-22T22:45:57.133Z,8.95
2017-07-22T22:48:24.245Z,7.35
2017-07-22T22:50:51.349Z,7.03
2017-07-22T22:53:18.526Z,7.90
2017-07-22T22:55:45.307Z,6.93
2017-07-22T22:58:12.081Z,6.40
2017-07-22T23:00:39.220Z,5.88
2017-07-22T23:03:06.320Z,6.75
2017-07-22T23:05:33.382Z,7.10
2017-07-22T23:08:00.558Z,5.95
2017-07-22T23:10:27.539Z,6.08
2017-07-22T23:12:54.641Z,9.53
2017-07-22T23:15:21.647Z,5.90
2017-07-22T23:17:48.413Z,6.75
2017-07-22T23:20:15.551Z,5.92
2017-07-22T23:22:42.337Z,6.58
2017-07-22T23:25:09.109Z,6.32
2017-07-22T23:27:36.275Z,6.35
2017-07-22T23:30:03.314Z,6.78
2017-07-22T23:32:30.305Z,7.07
2017-07-22T23:34:57.420Z,6.58
2017-07-22T23:37:25.257Z,6.68
2017-07-22T23:39:52.411Z,7.85
2017-07-22T23:42:19.189Z,11.98
2017-07-22T23:44:46.246Z,8.07
2017-07-22T23:47:13.337Z,7.62
2017-07-22T23:49:40.448Z,9.02
2017-07-22T23:52:08.026Z,8.50
2017-07-22T23:54:35.207Z,10.03
2017-07-22T23:57:02.694Z,10.68
2017-07-22T23:59:29.492Z,11.73
